createdAt,value
2023-01-08T00:00:20.355Z,9.30
2023-01-08T00:10:25.244Z,9.40
2023-01-08T00:20:32.236Z,9.40
2023-01-08T00:30:36.173Z,9.50
2023-01-08T00:40:41.309Z,9.60
2023-01-08T00:50:45.080Z,9.60
2023-01-08T01:00:50.890Z,9.70
2023-01-08T01:10:54.741Z,9.70
2023-01-08T01:21:00.746Z,9.80
2023-01-08T01:31:06.900Z,9.80
2023-01-08T01:41:20.840Z,10.00
2023-01-08T01:51:31.272Z,10.10
2023-01-08T02:01:39.158Z,10.20
2023-01-08T02:12:09.700Z,10.30
2023-01-08T02:22:33.491Z,10.40
2023-01-08T02:32:42.130Z,10.40
2023-01-08T02:42:52.798Z,10.40
2023-01-08T02:53:08.134Z,10.40
2023-01-08T03:03:16.778Z,10.30
2023-01-08T03:13:28.452Z,10.20
2023-01-08T03:23:34.983Z,10.00
2023-01-08T03:33:43.896Z,9.90
2023-01-08T03:43:47.638Z,10.00
2023-01-08T03:53:58.465Z,9.80
2023-01-08T04:04:03.042Z,9.70
2023-01-08T04:14:08.354Z,9.70
2023-01-08T04:24:12.754Z,9.60
2023-01-08T04:34:17.986Z,9.50
2023-01-08T04:44:21.743Z,9.40
2023-01-08T04:54:26.792Z,9.40
2023-01-08T05:04:30.974Z,9.30
2023-01-08T05:14:36.961Z,9.20
2023-01-08T05:24:40.705Z,9.20
2023-01-08T05:34:46.256Z,9.20
2023-01-08T05:44:49.947Z,9.20
2023-01-08T05:54:56.041Z,9.10
2023-01-08T06:05:00.097Z,9.10
2023-01-08T06:15:07.529Z,9.10
2023-01-08T06:25:11.449Z,9.20
2023-01-08T06:35:16.632Z,9.40
2023-01-08T06:45:20.606Z,9.30
2023-01-08T06:55:28.157Z,9.30
2023-01-08T07:05:32.092Z,9.30
2023-01-08T07:15:38.551Z,9.30
2023-01-08T07:25:42.156Z,9.30
2023-01-08T07:35:53.803Z,9.20
2023-01-08T07:45:57.824Z,9.20
2023-01-08T07:56:06.255Z,9.20
2023-01-08T08:06:12.143Z,9.20
2023-01-08T08:16:17.222Z,9.20
2023-01-08T08:26:21.179Z,9.40
2023-01-08T08:36:30.956Z,9.30
2023-01-08T08:46:35.480Z,9.30
2023-01-08T08:56:40.623Z,9.30
2023-01-08T09:06:44.391Z,9.40
2023-01-08T09:16:49.513Z,9.30
2023-01-08T09:26:54.663Z,9.30
2023-01-08T09:37:01.148Z,9.40
2023-01-08T09:47:06.012Z,9.40
2023-01-08T09:57:18.359Z,9.40
2023-01-08T10:07:25.403Z,9.40
2023-01-08T10:17:39.364Z,9.60
2023-01-08T10:27:52.140Z,9.60
2023-01-08T10:37:58.018Z,9.60
2023-01-08T10:48:06.779Z,9.70
2023-01-08T10:58:17.395Z,9.70
2023-01-08T11:08:23.362Z,9.80
2023-01-08T11:18:29.494Z,10.00
2023-01-08T11:28:47.132Z,10.20
2023-01-08T11:38:52.231Z,10.50
2023-01-08T11:49:17.334Z,10.80
2023-01-08T11:59:34.914Z,10.70
2023-01-08T12:09:45.845Z,10.70
2023-01-08T12:20:05.517Z,10.70
2023-01-08T12:30:27.245Z,10.80
2023-01-08T12:40:36.640Z,10.80
2023-01-08T12:50:52.511Z,10.70
2023-01-08T13:01:10.600Z,10.80
2023-01-08T13:11:25.464Z,10.80
2023-01-08T13:21:35.685Z,10.90
2023-01-08T13:31:42.410Z,10.70
2023-01-08T13:42:03.791Z,10.60
2023-01-08T13:52:07.603Z,10.50
2023-01-08T14:02:45.593Z,10.50
2023-01-08T14:12:51.396Z,10.50
2023-01-08T14:22:59.055Z,10.50
2023-01-08T14:33:05.003Z,10.60
2023-01-08T14:43:16.350Z,10.60
2023-01-08T14:53:27.625Z,10.60
2023-01-08T15:03:36.342Z,10.50
2023-01-08T15:13:40.123Z,10.40
2023-01-08T15:23:50.127Z,10.20
2023-01-08T15:33:54.183Z,10.10
2023-01-08T15:43:59.205Z,9.90
2023-01-08T15:54:03.750Z,9.70
2023-01-08T16:04:09.106Z,9.60
2023-01-08T16:14:13.027Z,9.70
2023-01-08T16:24:18.040Z,9.50
2023-01-08T16:34:22.237Z,9.40
2023-01-08T16:44:29.446Z,9.30
2023-01-08T16:54:33.771Z,9.20
2023-01-08T17:04:39.008Z,9.30
2023-01-08T17:14:43.085Z,9.20
2023-01-08T17:24:48.263Z,9.10
2023-01-08T17:34:55.263Z,8.90
2023-01-08T17:45:05.534Z,9.00
2023-01-08T17:55:11.473Z,9.10
2023-01-08T18:05:16.805Z,9.10
2023-01-08T18:15:20.586Z,9.20
2023-01-08T18:25:25.724Z,9.20
2023-01-08T18:35:30.412Z,9.30
2023-01-08T18:45:38.441Z,9.10
2023-01-08T18:55:42.218Z,9.00
2023-01-08T19:05:47.342Z,9.00
2023-01-08T19:15:51.143Z,9.00
2023-01-08T19:25:56.197Z,9.10
2023-01-08T19:36:03.222Z,9.10
2023-01-08T19:46:09.262Z,9.20
2023-01-08T19:56:15.370Z,9.20
2023-01-08T20:06:23.027Z,9.20
2023-01-08T20:16:27.747Z,9.10
2023-01-08T20:26:33.161Z,9.10
2023-01-08T20:36:37.877Z,9.10
2023-01-08T20:46:44.731Z,9.00
2023-01-08T20:56:49.137Z,9.00
2023-01-08T21:06:54.086Z,9.00
2023-01-08T21:16:57.975Z,8.90
2023-01-08T21:27:03.451Z,9.00
2023-01-08T21:37:08.521Z,8.90
2023-01-08T21:47:17.291Z,8.90
2023-01-08T21:57:21.790Z,9.00
2023-01-08T22:07:27.479Z,9.00
2023-01-08T22:17:31.872Z,9.00
2023-01-08T22:27:37.469Z,9.00
2023-01-08T22:37:43.539Z,8.90
2023-01-08T22:47:48.598Z,8.90
2023-01-08T22:57:53.042Z,8.80
2023-01-08T23:07:58.376Z,8.80
2023-01-08T23:18:02.285Z,8.80
2023-01-08T23:28:07.315Z,8.80
2023-01-08T23:38:10.931Z,8.80
2023-01-08T23:48:15.883Z,8.90
2023-01-08T23:58:20.133Z,8.90
